Time;durP1;ratioP1;P1;durP2;ratioP2;P2;SDS_P1;SDS_P2;PMS_P1;PMS_P2;Temp;Humidity;BMP_temperature;BMP_pressure;BME280_temperature;BME280_humidity;BME280_pressure;Samples;Min_cycle;Max_cycle;Signal;HPM_P1;HPM_P2
2022/07/18 00:00:12;;;;;;;2.63;1.50;;;;;;;20.12;44.30;100913.53;4884473;29;20119;-75
2022/07/18 00:02:38;;;;;;;1.98;1.52;;;;;;;19.95;43.86;100921.75;4862786;29;20037;-74
2022/07/18 00:05:04;;;;;;;1.38;1.25;;;;;;;19.84;44.61;100938.69;4867935;29;20036;-73
2022/07/18 00:07:30;;;;;;;2.00;1.50;;;;;;;19.74;44.27;100935.28;4900389;29;20063;-74
2022/07/18 00:09:55;;;;;;;2.60;1.45;;;;;;;19.63;44.04;100924.44;4899621;29;20552;-73
2022/07/18 00:12:20;;;;;;;1.90;1.15;;;;;;;19.56;44.01;100929.63;4884452;29;20486;-74
2022/07/18 00:14:46;;;;;;;1.52;1.10;;;;;;;19.44;44.11;100926.59;4872778;29;20048;-74
2022/07/18 00:17:12;;;;;;;3.63;1.17;;;;;;;19.34;44.50;100934.00;4901446;29;20042;-74
2022/07/18 00:19:38;;;;;;;1.27;1.02;;;;;;;19.29;44.31;100927.75;4884953;29;20032;-73
2022/07/18 00:22:04;;;;;;;1.38;0.93;;;;;;;19.26;44.88;100925.59;4904440;29;20036;-75
2022/07/18 00:24:31;;;;;;;0.50;0.50;;;;;;;19.22;45.27;100928.19;4905352;29;20036;-74
2022/07/18 00:26:59;;;;;;;0.75;0.65;;;;;;;19.18;44.91;100924.41;4889227;29;20055;-74
2022/07/18 00:29:24;;;;;;;1.85;1.20;;;;;;;19.18;45.30;100913.31;4888285;29;20037;-74
2022/07/18 00:31:50;;;;;;;1.00;0.90;;;;;;;19.23;44.00;100912.38;4873408;29;20084;-74
2022/07/18 00:34:15;;;;;;;1.77;1.27;;;;;;;19.37;43.40;100915.94;4903974;29;20043;-74
2022/07/18 00:36:41;;;;;;;2.03;1.40;;;;;;;19.50;42.71;100915.06;4889029;29;20025;-74
2022/07/18 00:39:06;;;;;;;2.45;1.50;;;;;;;19.64;42.48;100919.72;4889189;29;20052;-75
2022/07/18 00:41:32;;;;;;;1.80;1.40;;;;;;;19.57;42.07;100920.16;4892644;29;20037;-75
2022/07/18 00:43:57;;;;;;;2.45;1.17;;;;;;;19.52;41.92;100925.81;4875221;29;20055;-75
2022/07/18 00:46:25;;;;;;;1.17;0.88;;;;;;;19.43;42.47;100917.44;4860057;29;20056;-77
2022/07/18 00:48:51;;;;;;;1.70;1.50;;;;;;;19.40;43.04;100925.59;4889179;29;20025;-76
2022/07/18 00:51:17;;;;;;;1.58;1.33;;;;;;;19.27;43.72;100916.97;4890734;29;20124;-77
2022/07/18 00:53:43;;;;;;;1.45;1.20;;;;;;;19.12;44.77;100914.56;4893745;29;20076;-75
2022/07/18 00:56:10;;;;;;;2.55;1.60;;;;;;;19.02;45.43;100915.63;4877465;29;20028;-75
2022/07/18 00:58:37;;;;;;;1.27;1.13;;;;;;;18.90;45.33;100913.38;4901642;29;20029;-75
2022/07/18 01:03:47;;;;;;;1.67;1.35;;;;;;;18.71;46.17;100909.91;4896213;29;20535;-77
2022/07/18 01:06:12;;;;;;;2.60;1.50;;;;;;;18.68;46.01;100900.25;4904501;29;20080;-75
2022/07/18 01:08:41;;;;;;;1.98;1.50;;;;;;;18.92;44.59;100904.75;4886679;29;20056;-74
2022/07/18 01:11:07;;;;;;;2.60;2.05;;;;;;;19.12;43.59;100897.94;4904430;29;20028;-73
2022/07/18 01:13:32;;;;;;;2.50;1.80;;;;;;;19.33;42.47;100901.03;4871564;29;20080;-76
2022/07/18 01:15:58;;;;;;;2.70;1.92;;;;;;;19.46;42.46;100904.91;4900944;29;20039;-75
2022/07/18 01:18:23;;;;;;;2.58;1.77;;;;;;;19.51;41.58;100907.56;4902653;29;20032;-74
2022/07/18 01:20:49;;;;;;;3.20;2.13;;;;;;;19.58;41.60;100905.19;4879485;29;20100;-73
2022/07/18 01:23:14;;;;;;;2.75;1.80;;;;;;;19.58;41.10;100907.09;4885490;29;20044;-74
2022/07/18 01:25:39;;;;;;;3.78;2.45;;;;;;;19.59;41.65;100906.78;4902922;29;20100;-74
2022/07/18 01:28:05;;;;;;;2.92;1.80;;;;;;;19.54;41.28;100904.16;4871105;29;20691;-76
2022/07/18 01:30:30;;;;;;;2.30;1.83;;;;;;;19.46;42.03;100902.94;4888856;29;20032;-74
2022/07/18 01:33:01;;;;;;;3.08;1.50;;;;;;;19.26;43.50;100892.34;4903816;29;20394;-73
2022/07/18 01:35:28;;;;;;;1.45;1.10;;;;;;;19.06;44.13;100888.13;4901668;29;20029;-75
2022/07/18 01:37:55;;;;;;;1.52;1.00;;;;;;;18.87;45.25;100886.31;4888056;29;20036;-75
2022/07/18 01:40:22;;;;;;;0.90;0.80;;;;;;;18.72;45.17;100883.81;4887368;29;20135;-74
2022/07/18 01:42:48;;;;;;;1.25;0.80;;;;;;;18.55;45.60;100879.75;4903629;29;20020;-75
2022/07/18 01:45:15;;;;;;;1.05;0.95;;;;;;;18.42;46.25;100877.81;4871555;29;20055;-74
2022/07/18 01:47:41;;;;;;;0.75;0.55;;;;;;;18.30;46.34;100870.03;4901628;29;20032;-75
2022/07/18 01:50:07;;;;;;;0.52;0.52;;;;;;;18.21;46.99;100875.44;4886571;29;20039;-74
2022/07/18 01:52:32;;;;;;;1.10;0.80;;;;;;;18.11;47.17;100872.88;4888394;29;20092;-74
2022/07/18 01:54:58;;;;;;;1.05;0.85;;;;;;;18.06;47.22;100872.97;4870821;29;20092;-74
2022/07/18 01:57:23;;;;;;;0.82;0.73;;;;;;;17.98;48.16;100865.38;4882492;29;20044;-75
2022/07/18 01:59:49;;;;;;;1.20;0.82;;;;;;;17.91;48.38;100858.28;4891026;29;20029;-75
2022/07/18 02:02:15;;;;;;;0.93;0.75;;;;;;;17.90;48.07;100859.44;4889784;29;20051;-74
2022/07/18 02:04:59;;;;;;;1.10;0.80;;;;;;;18.07;47.31;100855.25;4903239;29;20070;-73
2022/07/18 02:07:30;;;;;;;1.23;0.88;;;;;;;18.09;47.37;100861.28;4898275;29;20073;-75
2022/07/18 02:09:56;;;;;;;1.42;1.05;;;;;;;18.05;47.12;100854.75;4880953;29;20563;-75
2022/07/18 02:12:22;;;;;;;0.77;0.77;;;;;;;18.00;47.39;100858.41;4886614;29;20031;-73
2022/07/18 02:14:48;;;;;;;1.35;1.02;;;;;;;17.96;47.61;100858.22;4882226;29;20024;-75
2022/07/18 02:17:13;;;;;;;1.40;0.95;;;;;;;17.98;47.13;100849.59;4885717;29;20039;-76
2022/07/18 02:19:39;;;;;;;2.33;1.40;;;;;;;18.01;47.15;100848.16;4902871;29;20036;-75
2022/07/18 02:22:04;;;;;;;1.60;1.30;;;;;;;18.01;47.15;100842.63;4899204;29;20539;-76
2022/07/18 02:24:30;;;;;;;1.75;1.13;;;;;;;17.99;47.61;100850.41;4886511;29;20111;-75
2022/07/18 02:26:56;;;;;;;1.88;1.50;;;;;;;17.97;47.29;100831.34;4900641;29;20047;-74
2022/07/18 02:29:21;;;;;;;3.17;1.40;;;;;;;18.07;47.51;100836.69;4903909;29;20013;-73
2022/07/18 02:31:46;;;;;;;2.55;1.40;;;;;;;18.11;46.91;100831.38;4898466;29;20036;-76
2022/07/18 02:34:12;;;;;;;3.53;1.70;;;;;;;18.23;46.40;100828.09;4881999;29;20469;-73
2022/07/18 02:36:38;;;;;;;1.67;1.38;;;;;;;18.30;46.80;100834.84;4865335;29;20036;-75
2022/07/18 02:39:05;;;;;;;2.33;1.25;;;;;;;18.30;46.21;100834.03;4884903;29;20068;-74
2022/07/18 02:41:30;;;;;;;2.58;1.30;;;;;;;18.40;46.36;100832.97;4901979;29;20061;-75
2022/07/18 02:43:56;;;;;;;1.27;1.10;;;;;;;18.50;46.17;100832.78;4886434;29;20036;-75
2022/07/18 02:46:22;;;;;;;1.77;1.20;;;;;;;18.59;45.67;100830.91;4901108;29;20036;-75
2022/07/18 02:48:47;;;;;;;2.40;1.70;;;;;;;18.66;45.44;100825.78;4887123;29;20020;-73
2022/07/18 02:51:12;;;;;;;2.88;1.73;;;;;;;18.71;45.63;100821.25;4904094;29;20032;-76
2022/07/18 02:53:38;;;;;;;2.85;1.85;;;;;;;18.69;45.27;100806.88;4903680;29;20051;-76
2022/07/18 02:56:04;;;;;;;5.13;2.05;;;;;;;18.75;45.07;100816.72;4869811;29;20029;-76
2022/07/18 02:58:29;;;;;;;2.95;1.85;;;;;;;18.80;44.96;100817.41;4874946;29;20124;-74
2022/07/18 03:00:55;;;;;;;2.85;1.85;;;;;;;18.81;44.90;100810.75;4886041;29;20062;-74
2022/07/18 03:03:20;;;;;;;3.92;2.17;;;;;;;18.89;45.23;100822.25;4874532;29;20028;-75
2022/07/18 03:05:46;;;;;;;2.67;2.08;;;;;;;18.89;45.23;100817.53;4892884;29;20036;-74
2022/07/18 03:08:11;;;;;;;2.60;1.83;;;;;;;18.88;45.52;100821.44;4879372;29;20119;-74
2022/07/18 03:10:37;;;;;;;3.00;2.00;;;;;;;18.82;45.72;100825.41;4902302;29;20071;-74
2022/07/18 03:13:03;;;;;;;3.08;2.08;;;;;;;18.75;45.47;100816.72;4902726;29;20028;-75
2022/07/18 03:15:28;;;;;;;3.42;2.60;;;;;;;18.72;45.22;100822.88;4854418;29;20063;-76
2022/07/18 03:17:54;;;;;;;2.80;2.00;;;;;;;18.64;45.40;100816.94;4880928;29;20063;-74
2022/07/18 03:20:19;;;;;;;2.17;1.55;;;;;;;18.56;45.87;100809.38;4883624;29;20048;-73
2022/07/18 03:22:45;;;;;;;2.35;1.40;;;;;;;18.42;45.98;100808.59;4885597;29;20040;-74
2022/07/18 03:25:10;;;;;;;2.20;1.42;;;;;;;18.31;46.38;100819.88;4864650;29;20043;-74
2022/07/18 03:27:35;;;;;;;1.20;1.05;;;;;;;18.25;46.32;100821.13;4879184;29;20041;-74
2022/07/18 03:30:01;;;;;;;1.70;1.30;;;;;;;18.16;46.90;100811.88;4880261;29;20051;-73
2022/07/18 03:32:26;;;;;;;1.65;1.20;;;;;;;18.11;47.36;100806.47;4867114;29;20040;-75
2022/07/18 03:34:52;;;;;;;2.47;1.40;;;;;;;18.05;47.24;100814.03;4886596;29;20040;-74
2022/07/18 03:37:17;;;;;;;1.30;1.20;;;;;;;17.98;48.13;100804.50;4852193;29;20071;-75
2022/07/18 03:39:43;;;;;;;2.25;1.58;;;;;;;17.91;48.25;100810.44;4899381;29;20021;-75
2022/07/18 03:42:08;;;;;;;1.10;1.00;;;;;;;17.86;48.51;100813.25;4902146;29;20263;-74
2022/07/18 03:44:34;;;;;;;2.88;1.88;;;;;;;17.82;48.97;100812.25;4890649;29;20047;-74
2022/07/18 03:46:59;;;;;;;1.80;1.48;;;;;;;17.79;48.86;100808.16;4868803;29;20092;-75
2022/07/18 03:49:24;;;;;;;1.63;1.20;;;;;;;17.76;49.01;100808.75;4892285;29;20653;-75
2022/07/18 03:51:50;;;;;;;1.35;1.13;;;;;;;17.69;49.27;100800.03;4896614;29;20039;-75
2022/07/18 03:54:15;;;;;;;1.80;1.27;;;;;;;17.68;49.31;100807.50;4865784;29;20046;-74
2022/07/18 03:56:41;;;;;;;1.77;1.30;;;;;;;17.59;49.52;100796.31;4899096;29;20033;-74
2022/07/18 03:59:07;;;;;;;3.55;1.23;;;;;;;17.63;49.83;100802.88;4897871;29;20552;-75
2022/07/18 04:01:33;;;;;;;1.77;1.30;;;;;;;17.69;49.84;100803.63;4896959;29;20458;-76
2022/07/18 04:03:58;;;;;;;2.33;1.30;;;;;;;17.70;50.17;100804.47;4899599;29;20055;-76
2022/07/18 04:06:24;;;;;;;1.55;1.00;;;;;;;17.75;50.40;100798.81;4896511;29;20040;-76
2022/07/18 04:08:49;;;;;;;1.65;0.98;;;;;;;17.79;50.46;100797.09;4899497;29;20352;-75
2022/07/18 04:11:15;;;;;;;1.50;1.13;;;;;;;17.84;49.74;100794.22;4900738;29;20050;-76
2022/07/18 04:13:40;;;;;;;1.52;1.13;;;;;;;17.95;49.75;100786.56;4899195;29;20680;-74
2022/07/18 04:16:06;;;;;;;2.13;1.35;;;;;;;18.03;50.42;100796.09;4883087;29;20444;-74
2022/07/18 04:18:31;;;;;;;2.67;1.35;;;;;;;18.06;50.54;100798.25;4876999;29;20158;-74
2022/07/18 04:20:57;;;;;;;1.98;1.65;;;;;;;18.07;50.79;100797.13;4882043;29;20060;-75
2022/07/18 04:23:22;;;;;;;1.73;1.27;;;;;;;18.04;50.91;100792.22;4865593;29;20041;-73
2022/07/18 04:25:48;;;;;;;1.83;1.23;;;;;;;18.03;51.41;100796.09;4874131;29;20028;-75
2022/07/18 04:28:14;;;;;;;2.17;1.50;;;;;;;17.95;51.33;100790.16;4881480;29;20056;-75
2022/07/18 04:30:42;;;;;;;1.98;1.40;;;;;;;17.96;51.23;100794.56;4884668;29;20036;-74
2022/07/18 04:33:09;;;;;;;2.70;1.50;;;;;;;17.96;50.90;100796.53;4900817;29;20743;-74
2022/07/18 04:35:35;;;;;;;2.55;1.70;;;;;;;17.93;50.96;100792.41;4882187;29;20096;-74
2022/07/18 04:38:02;;;;;;;1.75;1.23;;;;;;;17.90;50.78;100784.75;4882847;29;20025;-74
2022/07/18 04:40:27;;;;;;;4.93;2.05;;;;;;;17.98;50.57;100788.72;4885281;29;20464;-74
2022/07/18 04:42:53;;;;;;;3.70;2.25;;;;;;;18.04;50.12;100781.16;4897590;29;20028;-74
2022/07/18 04:45:21;;;;;;;2.55;1.98;;;;;;;18.14;50.12;100794.78;4883024;29;20184;-75
2022/07/18 04:47:48;;;;;;;3.55;1.83;;;;;;;18.17;49.65;100794.16;4903223;29;20413;-73
2022/07/18 04:50:14;;;;;;;2.10;1.33;;;;;;;18.20;49.71;100795.50;4896797;29;20503;-74
2022/07/18 04:52:42;;;;;;;2.08;1.48;;;;;;;18.26;49.70;100800.59;4880734;29;20040;-73
2022/07/18 04:55:09;;;;;;;2.78;1.63;;;;;;;18.31;49.71;100791.34;4898982;29;20021;-75
2022/07/18 04:57:35;;;;;;;1.40;1.13;;;;;;;18.37;49.47;100798.44;4905217;29;20088;-74
2022/07/18 05:00:03;;;;;;;1.13;1.02;;;;;;;18.38;49.90;100791.75;4896001;29;20474;-73
2022/07/18 05:02:29;;;;;;;2.38;1.10;;;;;;;18.40;49.75;100795.06;4886134;29;20070;-74
2022/07/18 05:04:56;;;;;;;1.23;1.02;;;;;;;18.42;49.83;100800.28;4895351;29;20029;-72
2022/07/18 05:07:22;;;;;;;1.33;0.90;;;;;;;18.46;50.17;100795.78;4879560;29;20096;-74
2022/07/18 05:09:47;;;;;;;4.45;1.17;;;;;;;18.49;50.27;100800.69;4864001;29;20852;-73
2022/07/18 05:12:13;;;;;;;1.88;0.98;;;;;;;18.51;50.26;100795.63;4901866;29;20059;-74
2022/07/18 05:14:38;;;;;;;0.85;0.82;;;;;;;18.58;50.51;100801.56;4880333;29;20029;-74
2022/07/18 05:17:03;;;;;;;1.20;0.98;;;;;;;18.64;50.09;100794.78;4869176;29;20448;-75
2022/07/18 05:19:29;;;;;;;1.85;1.40;;;;;;;18.70;49.97;100797.44;4886500;29;20440;-75
2022/07/18 05:21:54;;;;;;;1.50;1.23;;;;;;;18.80;49.75;100797.22;4885986;29;20037;-74
2022/07/18 05:24:20;;;;;;;1.80;0.90;;;;;;;18.89;50.15;100798.13;4887837;29;20074;-73
2022/07/18 05:26:45;;;;;;;2.05;1.30;;;;;;;18.98;49.66;100790.72;4885895;29;20028;-74
2022/07/18 05:29:12;;;;;;;1.73;1.35;;;;;;;19.08;49.08;100792.41;4887188;29;20037;-74
2022/07/18 05:31:41;;;;;;;2.05;1.50;;;;;;;19.16;49.21;100793.63;4886180;29;20047;-76
2022/07/18 05:34:07;;;;;;;1.83;1.33;;;;;;;19.22;48.70;100780.47;4901472;29;20040;-76
2022/07/18 05:36:33;;;;;;;2.25;1.45;;;;;;;19.34;49.12;100787.06;4867513;29;20041;-73
2022/07/18 05:38:58;;;;;;;1.60;1.30;;;;;;;19.39;48.95;100790.84;4889166;29;20094;-75
2022/07/18 05:41:24;;;;;;;2.13;1.27;;;;;;;19.47;49.04;100787.31;4886060;29;20077;-73
2022/07/18 05:43:49;;;;;;;1.42;1.05;;;;;;;19.56;48.67;100790.94;4887818;29;20048;-75
2022/07/18 05:46:15;;;;;;;1.02;0.90;;;;;;;19.63;48.91;100785.75;4879015;29;20032;-74
2022/07/18 05:48:40;;;;;;;1.38;1.27;;;;;;;19.71;48.92;100782.22;4898350;29;20050;-74
2022/07/18 05:51:06;;;;;;;1.30;1.00;;;;;;;19.82;48.62;100780.00;4898988;29;20034;-76
2022/07/18 05:53:32;;;;;;;1.73;1.30;;;;;;;19.89;48.70;100782.31;4881037;29;20024;-73
2022/07/18 05:55:58;;;;;;;1.85;1.40;;;;;;;20.00;48.55;100786.41;4899059;29;20028;-74
2022/07/18 05:58:23;;;;;;;3.00;1.95;;;;;;;20.11;47.92;100784.19;4890915;29;20044;-73
2022/07/18 06:00:49;;;;;;;2.80;2.00;;;;;;;20.19;47.95;100774.25;4898534;29;20025;-72
2022/07/18 06:03:14;;;;;;;1.52;1.15;;;;;;;20.32;47.60;100784.38;4879358;29;20181;-73
2022/07/18 06:05:40;;;;;;;3.05;1.65;;;;;;;20.44;47.66;100780.16;4861503;29;20897;-73
2022/07/18 06:08:06;;;;;;;2.13;1.45;;;;;;;20.58;46.96;100786.41;4865769;29;20456;-72
2022/07/18 06:10:31;;;;;;;1.60;1.40;;;;;;;20.71;46.71;100782.69;4900278;29;20037;-72
2022/07/18 06:12:57;;;;;;;2.05;1.58;;;;;;;20.85;46.75;100790.03;4901560;29;20039;-74
2022/07/18 06:15:23;;;;;;;2.72;1.58;;;;;;;20.93;46.58;100778.09;4880905;29;20115;-74
2022/07/18 06:17:49;;;;;;;3.47;1.65;;;;;;;21.02;46.76;100778.91;4898616;29;20139;-74
2022/07/18 06:20:15;;;;;;;3.22;2.10;;;;;;;21.08;47.01;100785.97;4883643;29;20036;-75
2022/07/18 06:22:40;;;;;;;2.72;1.80;;;;;;;21.16;47.07;100773.19;4896855;29;20024;-74
2022/07/18 06:25:06;;;;;;;2.70;1.63;;;;;;;21.27;46.63;100779.22;4867772;29;20032;-73
2022/07/18 06:27:32;;;;;;;2.25;1.40;;;;;;;21.39;46.75;100790.50;4899470;29;20150;-75
2022/07/18 06:29:59;;;;;;;2.63;1.38;;;;;;;21.55;46.64;100784.41;4870728;29;20065;-75
2022/07/18 06:32:24;;;;;;;2.47;1.73;;;;;;;21.71;46.38;100793.03;4878223;29;20036;-75
2022/07/18 06:34:50;;;;;;;2.40;1.60;;;;;;;21.86;45.86;100806.41;4902244;29;20107;-75
2022/07/18 06:37:15;;;;;;;4.45;1.80;;;;;;;22.08;45.72;100802.56;4885244;29;20040;-75
2022/07/18 06:39:40;;;;;;;3.00;1.90;;;;;;;22.39;45.16;100808.97;4884432;29;20064;-77
2022/07/18 06:42:07;;;;;;;1.80;1.55;;;;;;;22.67;44.44;100790.56;4897491;29;20104;-76
2022/07/18 06:44:33;;;;;;;4.18;2.08;;;;;;;23.01;44.56;100804.56;4867953;29;20039;-76
2022/07/18 06:46:59;;;;;;;2.22;1.70;;;;;;;22.99;44.07;100812.47;4902361;29;20025;-75
2022/07/18 06:49:25;;;;;;;8.45;2.75;;;;;;;22.68;44.61;100808.13;4884404;29;20060;-76
2022/07/18 06:51:51;;;;;;;4.28;2.22;;;;;;;22.45;45.07;100808.44;4886816;29;20037;-74
2022/07/18 06:54:16;;;;;;;2.45;2.00;;;;;;;22.36;45.40;100812.44;4892327;29;20294;-71
2022/07/18 06:56:42;;;;;;;3.17;2.55;;;;;;;22.26;45.63;100808.03;4887410;29;20051;-74
2022/07/18 06:59:07;;;;;;;3.92;2.45;;;;;;;22.07;45.80;100805.66;4902247;29;20041;-76
2022/07/18 07:01:33;;;;;;;3.15;2.03;;;;;;;22.04;46.20;100812.72;4862390;29;20558;-75
2022/07/18 07:03:58;;;;;;;6.18;2.80;;;;;;;22.11;46.62;100815.81;4901684;29;20062;-75
2022/07/18 07:06:24;;;;;;;3.65;2.30;;;;;;;22.32;46.48;100806.72;4878560;29;20096;-76
2022/07/18 07:08:49;;;;;;;2.88;2.00;;;;;;;22.70;45.88;100811.38;4876174;29;20067;-74
2022/07/18 07:11:15;;;;;;;4.35;2.08;;;;;;;22.88;45.42;100803.72;4884966;29;20059;-75
2022/07/18 07:13:41;;;;;;;7.45;3.30;;;;;;;23.05;46.22;100822.25;4895645;29;20060;-75
2022/07/18 07:16:06;;;;;;;3.92;2.70;;;;;;;23.13;46.02;100818.63;4880639;29;20088;-75
2022/07/18 07:18:32;;;;;;;4.60;2.53;;;;;;;23.30;45.41;100805.66;4901496;29;20071;-75
2022/07/18 07:20:58;;;;;;;4.63;2.67;;;;;;;23.50;45.65;100813.16;4898975;29;20040;-75
2022/07/18 07:23:23;;;;;;;5.15;2.40;;;;;;;23.63;45.46;100813.19;4886281;29;20041;-76
2022/07/18 07:25:48;;;;;;;6.07;2.03;;;;;;;23.70;45.43;100808.66;4901205;29;20036;-76
2022/07/18 07:28:14;;;;;;;3.58;2.58;;;;;;;23.89;44.99;100810.13;4883755;29;20056;-74
2022/07/18 07:30:39;;;;;;;3.83;2.40;;;;;;;24.01;44.96;100807.34;4899836;29;20053;-73
2022/07/18 07:33:08;;;;;;;4.60;2.63;;;;;;;24.23;44.50;100803.25;4880293;29;20036;-76
2022/07/18 07:35:33;;;;;;;4.72;2.42;;;;;;;24.35;44.01;100804.41;4898716;29;20063;-77
2022/07/18 07:37:59;;;;;;;3.25;2.30;;;;;;;24.36;44.31;100801.28;4883596;29;20058;-75
2022/07/18 07:40:27;;;;;;;5.18;2.00;;;;;;;24.57;44.45;100806.72;4895775;29;20207;-72
2022/07/18 07:43:04;;;;;;;3.38;2.33;;;;;;;24.85;43.86;100805.16;4899170;29;20111;-74
2022/07/18 07:45:30;;;;;;;5.45;2.47;;;;;;;24.90;43.17;100786.16;4900295;29;20029;-74
2022/07/18 07:47:58;;;;;;;7.40;2.60;;;;;;;24.99;43.64;100799.19;4902443;29;20171;-75
2022/07/18 07:50:24;;;;;;;3.72;2.17;;;;;;;24.97;43.93;100796.75;4881205;29;20037;-75
2022/07/18 07:52:49;;;;;;;4.00;2.70;;;;;;;24.91;43.53;100804.56;4868289;29;20048;-75
2022/07/18 07:55:15;;;;;;;2.97;2.08;;;;;;;25.00;43.40;100800.78;4900233;29;20115;-75
2022/07/18 07:57:42;;;;;;;4.30;2.22;;;;;;;25.12;43.06;100800.75;4888682;29;20036;-74
2022/07/18 08:00:09;;;;;;;5.57;2.08;;;;;;;25.42;43.40;100806.81;4875633;29;20065;-74
2022/07/18 08:02:34;;;;;;;5.32;2.10;;;;;;;25.67;42.47;100794.66;4878786;29;20390;-73
2022/07/18 08:05:00;;;;;;;3.38;2.10;;;;;;;25.87;41.86;100787.97;4876799;29;20045;-73
2022/07/18 08:07:25;;;;;;;3.22;2.00;;;;;;;26.16;41.73;100794.31;4878951;29;20055;-75
2022/07/18 08:09:51;;;;;;;3.85;2.05;;;;;;;26.53;40.27;100799.56;4894923;29;20080;-73
2022/07/18 08:12:17;;;;;;;2.67;2.05;;;;;;;26.75;40.03;100794.44;4871281;29;20056;-74
2022/07/18 08:14:42;;;;;;;4.63;2.08;;;;;;;27.09;39.70;100794.78;4870348;29;20029;-73
2022/07/18 08:17:08;;;;;;;3.40;2.00;;;;;;;27.48;38.75;100784.31;4878574;29;20041;-73
2022/07/18 08:19:33;;;;;;;3.38;2.05;;;;;;;27.71;38.01;100788.31;4896529;29;20527;-72
2022/07/18 08:21:59;;;;;;;5.78;2.58;;;;;;;27.76;37.60;100782.38;4899118;29;20043;-72
2022/07/18 08:24:27;;;;;;;6.82;2.20;;;;;;;27.92;36.83;100796.28;4899016;29;20041;-74
2022/07/18 08:26:52;;;;;;;4.68;2.10;;;;;;;27.77;37.24;100790.41;4896699;29;20457;-73
2022/07/18 08:29:18;;;;;;;5.50;1.80;;;;;;;27.78;37.42;100780.00;4886348;29;20044;-74
2022/07/18 08:31:43;;;;;;;2.33;1.70;;;;;;;27.69;37.20;100789.50;4854388;29;20025;-73
2022/07/18 08:34:08;;;;;;;3.63;1.95;;;;;;;27.74;37.43;100790.38;4884705;29;20381;-75
2022/07/18 08:36:34;;;;;;;3.53;2.10;;;;;;;27.99;37.15;100780.41;4884687;29;20064;-73
2022/07/18 08:38:59;;;;;;;6.45;2.20;;;;;;;28.35;35.93;100780.94;4895786;29;20042;-73
2022/07/18 08:41:27;;;;;;;2.95;1.77;;;;;;;28.70;36.09;100785.47;4899044;29;20039;-72
2022/07/18 08:43:53;;;;;;;2.72;1.65;;;;;;;29.21;35.26;100800.16;4900545;29;20032;-75
2022/07/18 08:46:21;;;;;;;3.53;1.58;;;;;;;29.31;33.52;100793.88;4902878;29;20024;-74
2022/07/18 08:48:48;;;;;;;6.63;1.55;;;;;;;29.53;33.84;100788.47;4904097;29;20111;-73
2022/07/18 08:51:13;;;;;;;2.17;1.70;;;;;;;29.60;33.97;100792.16;4875997;29;20020;-72
2022/07/18 08:53:39;;;;;;;2.35;1.45;;;;;;;29.62;33.46;100800.19;4878747;29;20036;-73
2022/07/18 08:56:05;;;;;;;3.80;1.88;;;;;;;29.40;33.85;100796.38;4901792;29;20024;-73
2022/07/18 08:58:31;;;;;;;3.17;1.95;;;;;;;29.27;33.57;100795.03;4867683;29;20193;-71
2022/07/18 09:00:59;;;;;;;8.90;1.92;;;;;;;29.30;33.49;100797.06;4887056;29;20099;-76
2022/07/18 09:03:26;;;;;;;1.40;1.30;;;;;;;29.31;33.97;100790.25;4884482;29;20140;-73
2022/07/18 09:06:12;;;;;;;2.10;1.30;;;;;;;29.60;33.82;100785.72;4900779;29;20040;-73
2022/07/18 09:08:40;;;;;;;2.22;1.40;;;;;;;29.61;32.97;100784.50;4901182;29;20048;-73
2022/07/18 09:11:10;;;;;;;3.28;1.80;;;;;;;29.62;33.32;100786.13;4894092;29;20053;-73
2022/07/18 09:13:39;;;;;;;4.00;1.77;;;;;;;29.74;33.11;100787.84;4892394;29;20073;-73
2022/07/18 09:16:12;;;;;;;1.55;1.30;;;;;;;30.09;33.02;100783.72;4878429;29;20031;-73
2022/07/18 09:18:44;;;;;;;3.40;1.40;;;;;;;30.51;32.29;100784.44;4881402;29;20036;-74
2022/07/18 09:21:17;;;;;;;2.58;1.45;;;;;;;30.95;31.70;100783.41;4892610;29;20033;-71
2022/07/18 09:23:48;;;;;;;1.88;1.50;;;;;;;31.28;31.44;100778.69;4896030;29;20036;-74
2022/07/18 09:26:36;;;;;;;2.97;1.52;;;;;;;31.40;30.37;100778.31;4897288;29;20076;-75
2022/07/18 09:29:02;;;;;;;8.48;2.40;;;;;;;31.44;30.19;100776.31;4900343;29;20028;-79
2022/07/18 09:31:28;;;;;;;2.15;1.38;;;;;;;31.45;30.56;100782.75;4897879;29;20029;-76
2022/07/18 09:33:55;;;;;;;2.15;1.60;;;;;;;32.04;30.13;100782.41;4885548;29;20475;-74
2022/07/18 09:36:21;;;;;;;1.35;1.10;;;;;;;32.65;29.35;100779.47;4876806;29;20031;-73
2022/07/18 09:38:47;;;;;;;1.50;1.30;;;;;;;32.83;29.30;100785.09;4874362;29;20040;-74
2022/07/18 09:41:12;;;;;;;2.92;1.30;;;;;;;33.05;28.36;100790.66;4864540;29;20113;-73
2022/07/18 09:43:38;;;;;;;2.58;1.30;;;;;;;32.97;28.35;100786.22;4902280;29;20084;-75
2022/07/18 09:46:05;;;;;;;1.55;1.20;;;;;;;33.04;27.54;100789.03;4902992;29;20103;-74
2022/07/18 09:48:31;;;;;;;6.28;1.60;;;;;;;33.16;26.66;100774.41;4900960;29;20035;-74
2022/07/18 09:51:03;;;;;;;1.95;1.20;;;;;;;33.55;25.79;100792.38;4900533;29;20033;-75
2022/07/18 09:53:37;;;;;;;2.30;1.02;;;;;;;33.78;25.21;100786.16;4899005;29;20040;-73
2022/07/18 09:56:07;;;;;;;1.98;1.25;;;;;;;34.03;24.71;100793.66;4901524;29;20024;-73
2022/07/18 09:58:35;;;;;;;2.63;1.73;;;;;;;34.40;24.42;100787.22;4903749;29;20027;-75
2022/07/18 10:01:03;;;;;;;3.40;1.67;;;;;;;34.62;24.15;100786.97;4900710;29;20020;-76
2022/07/18 10:03:29;;;;;;;1.38;1.02;;;;;;;34.49;23.93;100775.38;4905082;29;20168;-76
2022/07/18 10:05:57;;;;;;;4.05;1.30;;;;;;;35.79;22.78;100773.59;4899162;29;20071;-73
2022/07/18 10:08:24;;;;;;;1.75;1.05;;;;;;;38.59;20.52;100762.81;4895447;29;20059;-72
2022/07/18 10:10:51;;;;;;;1.52;1.05;;;;;;;41.83;17.85;100768.53;4900744;29;20131;-74
2022/07/18 10:13:19;;;;;;;3.15;1.73;;;;;;;44.99;14.74;100769.88;4902926;29;20609;-74
2022/07/18 10:15:46;;;;;;;1.85;1.40;;;;;;;45.94;13.67;100775.50;4868355;29;20116;-75
2022/07/18 10:18:15;;;;;;;1.50;1.10;;;;;;;46.43;13.47;100772.94;4901576;29;20045;-73
2022/07/18 10:21:04;;;;;;;2.40;1.30;;;;;;;47.41;13.09;100767.47;4886538;29;20072;-72
2022/07/18 10:23:39;;;;;;;2.53;1.33;;;;;;;45.14;14.10;100759.16;4899555;29;20056;-75
2022/07/18 10:26:24;;;;;;;2.00;1.40;;;;;;;42.31;15.48;100776.72;4902040;29;20076;-74
2022/07/18 10:28:55;;;;;;;2.13;1.58;;;;;;;39.31;17.88;100754.94;4904798;29;20028;-75
2022/07/18 10:31:22;;;;;;;3.65;1.65;;;;;;;37.52;19.77;100761.56;4884425;29;20035;-74
2022/07/18 10:33:48;;;;;;;1.25;0.80;;;;;;;36.54;21.11;100757.19;4886817;29;20048;-76
2022/07/18 10:36:21;;;;;;;1.80;1.27;;;;;;;35.44;22.30;100745.31;4871962;29;20109;-75
2022/07/18 10:39:25;;;;;;;1.95;1.23;;;;;;;34.71;23.35;100743.84;4872325;29;20120;-74
2022/07/18 10:41:50;;;;;;;2.78;1.35;;;;;;;34.89;23.80;100753.00;4886296;29;20184;-75
2022/07/18 10:44:31;;;;;;;1.45;0.80;;;;;;;34.99;23.41;100750.41;4898929;29;20016;-76
2022/07/18 10:47:02;;;;;;;1.20;1.00;;;;;;;35.27;23.18;100747.16;4897846;29;20059;-76
2022/07/18 10:49:46;;;;;;;1.30;1.10;;;;;;;35.39;22.94;100754.31;4892376;29;20033;-77
2022/07/18 10:52:27;;;;;;;2.88;1.10;;;;;;;35.76;22.69;100754.53;4900478;29;20029;-73
2022/07/18 10:55:05;;;;;;;2.13;1.30;;;;;;;35.97;21.95;100757.03;4890730;29;20024;-72
2022/07/18 10:57:41;;;;;;;2.10;1.10;;;;;;;36.22;22.09;100750.06;4879981;29;20039;-73
2022/07/18 11:00:33;;;;;;;1.30;0.85;;;;;;;37.76;20.86;100752.84;4898199;29;20481;-75
2022/07/18 11:03:07;;;;;;;3.83;1.17;;;;;;;39.72;19.11;100763.84;4895023;29;20167;-73
2022/07/18 11:05:34;;;;;;;1.58;1.10;;;;;;;41.07;17.91;100762.22;4898262;29;20029;-75
2022/07/18 11:08:03;;;;;;;2.75;1.10;;;;;;;41.98;17.51;100765.03;4880798;29;20049;-73
2022/07/18 11:10:41;;;;;;;1.48;0.80;;;;;;;42.56;17.41;100766.16;4892792;29;20043;-73
2022/07/18 11:13:25;;;;;;;5.43;1.65;;;;;;;43.77;15.53;100763.63;4896451;29;20029;-72
2022/07/18 11:15:53;;;;;;;2.45;0.90;;;;;;;46.03;14.37;100771.66;4897607;29;20853;-72
2022/07/18 11:18:18;;;;;;;2.20;1.20;;;;;;;48.53;12.53;100763.44;4873239;29;20476;-73
2022/07/18 11:20:44;;;;;;;2.47;1.15;;;;;;;50.91;10.56;100768.34;4862982;29;20044;-74
2022/07/18 11:23:17;;;;;;;0.80;0.80;;;;;;;52.31;10.28;100773.06;4877917;29;20048;-75
2022/07/18 11:25:44;;;;;;;1.65;0.80;;;;;;;53.67;8.89;100764.81;4896588;29;20039;-75